sensor_id;sensor_type;location;lat;lon;timestamp;P1;durP1;ratioP1;P2;durP2;ratioP2
47021;SDS011;32779;52.264;6.154;2022-08-21T00:02:16;6.50;;;3.10;;
47021;SDS011;32779;52.264;6.154;2022-08-21T00:04:44;7.10;;;3.38;;
47021;SDS011;32779;52.264;6.154;2022-08-21T00:09:36;8.15;;;3.10;;
47021;SDS011;32779;52.264;6.154;2022-08-21T00:12:02;7.53;;;3.65;;
47021;SDS011;32779;52.264;6.154;2022-08-21T00:14:28;11.45;;;3.60;;
47021;SDS011;32779;52.264;6.154;2022-08-21T00:19:19;6.88;;;2.80;;
47021;SDS011;32779;52.264;6.154;2022-08-21T00:21:49;6.90;;;2.78;;
47021;SDS011;32779;52.264;6.154;2022-08-21T00:24:18;5.93;;;3.08;;
47021;SDS011;32779;52.264;6.154;2022-08-21T00:26:45;9.10;;;3.28;;
47021;SDS011;32779;52.264;6.154;2022-08-21T00:29:11;10.00;;;3.08;;
47021;SDS011;32779;52.264;6.154;2022-08-21T00:34:02;7.25;;;2.80;;
47021;SDS011;32779;52.264;6.154;2022-08-21T00:36:28;8.60;;;3.10;;
47021;SDS011;32779;52.264;6.154;2022-08-21T00:38:54;4.78;;;2.95;;
47021;SDS011;32779;52.264;6.154;2022-08-21T00:41:21;6.55;;;3.10;;
47021;SDS011;32779;52.264;6.154;2022-08-21T00:43:48;6.88;;;3.38;;
47021;SDS011;32779;52.264;6.154;2022-08-21T00:46:14;6.15;;;3.13;;
47021;SDS011;32779;52.264;6.154;2022-08-21T00:51:13;5.15;;;2.90;;
47021;SDS011;32779;52.264;6.154;2022-08-21T00:53:48;8.43;;;2.75;;
47021;SDS011;32779;52.264;6.154;2022-08-21T00:56:17;8.68;;;3.08;;
47021;SDS011;32779;52.264;6.154;2022-08-21T00:58:44;5.63;;;2.97;;
47021;SDS011;32779;52.264;6.154;2022-08-21T01:01:11;11.20;;;3.17;;
47021;SDS011;32779;52.264;6.154;2022-08-21T01:06:04;4.05;;;2.88;;
47021;SDS011;32779;52.264;6.154;2022-08-21T01:08:31;6.93;;;3.08;;
47021;SDS011;32779;52.264;6.154;2022-08-21T01:10:57;8.93;;;2.70;;
47021;SDS011;32779;52.264;6.154;2022-08-21T01:13:24;6.63;;;3.35;;
47021;SDS011;32779;52.264;6.154;2022-08-21T01:15:53;4.85;;;2.72;;
47021;SDS011;32779;52.264;6.154;2022-08-21T01:18:20;8.45;;;2.70;;
47021;SDS011;32779;52.264;6.154;2022-08-21T01:20:58;8.00;;;2.85;;
47021;SDS011;32779;52.264;6.154;2022-08-21T01:23:48;6.22;;;2.47;;
47021;SDS011;32779;52.264;6.154;2022-08-21T01:26:17;4.70;;;2.63;;
47021;SDS011;32779;52.264;6.154;2022-08-21T01:28:51;5.32;;;2.40;;
47021;SDS011;32779;52.264;6.154;2022-08-21T01:31:25;7.65;;;2.55;;
47021;SDS011;32779;52.264;6.154;2022-08-21T01:33:53;7.60;;;2.80;;
47021;SDS011;32779;52.264;6.154;2022-08-21T01:36:19;6.50;;;2.75;;
47021;SDS011;32779;52.264;6.154;2022-08-21T01:38:46;9.02;;;2.83;;
47021;SDS011;32779;52.264;6.154;2022-08-21T01:43:38;6.47;;;2.65;;
47021;SDS011;32779;52.264;6.154;2022-08-21T01:46:03;2.92;;;2.65;;
47021;SDS011;32779;52.264;6.154;2022-08-21T01:48:29;7.40;;;2.75;;
47021;SDS011;32779;52.264;6.154;2022-08-21T01:50:55;5.75;;;2.83;;
47021;SDS011;32779;52.264;6.154;2022-08-21T01:53:22;5.93;;;2.88;;
47021;SDS011;32779;52.264;6.154;2022-08-21T01:55:48;9.20;;;2.92;;
47021;SDS011;32779;52.264;6.154;2022-08-21T02:00:39;4.95;;;2.72;;
47021;SDS011;32779;52.264;6.154;2022-08-21T02:03:04;3.38;;;2.80;;
47021;SDS011;32779;52.264;6.154;2022-08-21T02:05:30;7.13;;;3.15;;
47021;SDS011;32779;52.264;6.154;2022-08-21T02:07:57;5.15;;;2.85;;
47021;SDS011;32779;52.264;6.154;2022-08-21T02:10:26;6.50;;;2.55;;
47021;SDS011;32779;52.264;6.154;2022-08-21T02:12:55;6.63;;;2.60;;
47021;SDS011;32779;52.264;6.154;2022-08-21T02:15:21;5.45;;;2.83;;
47021;SDS011;32779;52.264;6.154;2022-08-21T02:17:49;6.68;;;3.08;;
47021;SDS011;32779;52.264;6.154;2022-08-21T02:20:18;7.95;;;3.17;;
47021;SDS011;32779;52.264;6.154;2022-08-21T02:22:50;6.97;;;3.10;;
47021;SDS011;32779;52.264;6.154;2022-08-21T02:25:16;7.10;;;3.45;;
47021;SDS011;32779;52.264;6.154;2022-08-21T02:27:43;5.70;;;3.00;;
47021;SDS011;32779;52.264;6.154;2022-08-21T02:30:13;7.18;;;3.10;;
47021;SDS011;32779;52.264;6.154;2022-08-21T02:32:45;6.55;;;2.88;;
47021;SDS011;32779;52.264;6.154;2022-08-21T02:35:11;5.65;;;3.47;;
47021;SDS011;32779;52.264;6.154;2022-08-21T02:37:47;9.63;;;3.25;;
47021;SDS011;32779;52.264;6.154;2022-08-21T02:40:23;10.50;;;3.13;;
47021;SDS011;32779;52.264;6.154;2022-08-21T02:42:51;6.90;;;3.17;;
47021;SDS011;32779;52.264;6.154;2022-08-21T02:45:17;5.75;;;3.28;;
47021;SDS011;32779;52.264;6.154;2022-08-21T02:47:47;6.05;;;3.00;;
47021;SDS011;32779;52.264;6.154;2022-08-21T02:50:25;8.02;;;3.38;;
47021;SDS011;32779;52.264;6.154;2022-08-21T02:53:02;6.63;;;3.17;;
47021;SDS011;32779;52.264;6.154;2022-08-21T02:55:29;7.25;;;2.72;;
47021;SDS011;32779;52.264;6.154;2022-08-21T02:57:56;6.53;;;2.65;;
47021;SDS011;32779;52.264;6.154;2022-08-21T03:00:23;8.10;;;3.20;;
47021;SDS011;32779;52.264;6.154;2022-08-21T03:02:51;9.05;;;3.03;;
47021;SDS011;32779;52.264;6.154;2022-08-21T03:05:18;7.60;;;3.40;;
47021;SDS011;32779;52.264;6.154;2022-08-21T03:07:45;8.02;;;2.97;;
47021;SDS011;32779;52.264;6.154;2022-08-21T03:10:12;5.88;;;2.90;;
47021;SDS011;32779;52.264;6.154;2022-08-21T03:12:38;7.35;;;3.70;;
47021;SDS011;32779;52.264;6.154;2022-08-21T03:15:04;6.13;;;2.95;;
47021;SDS011;32779;52.264;6.154;2022-08-21T03:17:31;9.05;;;3.40;;
47021;SDS011;32779;52.264;6.154;2022-08-21T03:22:23;4.40;;;2.28;;
47021;SDS011;32779;52.264;6.154;2022-08-21T03:27:14;5.63;;;2.60;;
47021;SDS011;32779;52.264;6.154;2022-08-21T03:29:40;4.38;;;2.70;;
47021;SDS011;32779;52.264;6.154;2022-08-21T03:34:34;8.10;;;3.20;;
47021;SDS011;32779;52.264;6.154;2022-08-21T03:37:03;5.75;;;2.97;;
47021;SDS011;32779;52.264;6.154;2022-08-21T03:39:30;8.60;;;3.00;;
47021;SDS011;32779;52.264;6.154;2022-08-21T03:41:56;8.75;;;3.20;;
47021;SDS011;32779;52.264;6.154;2022-08-21T03:46:47;5.93;;;2.78;;
47021;SDS011;32779;52.264;6.154;2022-08-21T03:49:13;6.88;;;3.13;;
47021;SDS011;32779;52.264;6.154;2022-08-21T03:54:05;9.18;;;3.35;;
47021;SDS011;32779;52.264;6.154;2022-08-21T03:56:30;7.10;;;3.30;;
47021;SDS011;32779;52.264;6.154;2022-08-21T04:01:22;7.50;;;2.88;;
47021;SDS011;32779;52.264;6.154;2022-08-21T04:03:48;6.20;;;3.10;;
47021;SDS011;32779;52.264;6.154;2022-08-21T04:06:14;5.68;;;2.95;;
47021;SDS011;32779;52.264;6.154;2022-08-21T04:11:07;8.45;;;3.05;;
47021;SDS011;32779;52.264;6.154;2022-08-21T04:13:35;8.43;;;3.10;;
47021;SDS011;32779;52.264;6.154;2022-08-21T04:16:01;7.72;;;3.70;;
47021;SDS011;32779;52.264;6.154;2022-08-21T04:18:27;7.35;;;3.58;;
47021;SDS011;32779;52.264;6.154;2022-08-21T04:20:52;8.07;;;3.78;;
47021;SDS011;32779;52.264;6.154;2022-08-21T04:23:22;7.78;;;3.25;;
47021;SDS011;32779;52.264;6.154;2022-08-21T04:25:48;9.25;;;2.90;;
47021;SDS011;32779;52.264;6.154;2022-08-21T04:30:40;10.20;;;3.58;;
47021;SDS011;32779;52.264;6.154;2022-08-21T04:35:31;7.97;;;3.47;;
47021;SDS011;32779;52.264;6.154;2022-08-21T04:40:23;10.68;;;3.58;;
47021;SDS011;32779;52.264;6.154;2022-08-21T04:42:52;7.80;;;3.80;;
47021;SDS011;32779;52.264;6.154;2022-08-21T04:45:24;7.05;;;3.47;;
47021;SDS011;32779;52.264;6.154;2022-08-21T04:47:56;8.07;;;3.42;;
47021;SDS011;32779;52.264;6.154;2022-08-21T04:50:37;4.95;;;3.10;;
47021;SDS011;32779;52.264;6.154;2022-08-21T04:53:29;7.05;;;3.20;;
47021;SDS011;32779;52.264;6.154;2022-08-21T04:56:06;7.10;;;3.50;;
47021;SDS011;32779;52.264;6.154;2022-08-21T04:58:35;11.88;;;3.88;;
47021;SDS011;32779;52.264;6.154;2022-08-21T05:01:03;7.38;;;3.63;;
47021;SDS011;32779;52.264;6.154;2022-08-21T05:03:32;10.77;;;3.53;;
47021;SDS011;32779;52.264;6.154;2022-08-21T05:06:00;9.23;;;3.67;;
47021;SDS011;32779;52.264;6.154;2022-08-21T05:08:30;7.45;;;3.78;;
47021;SDS011;32779;52.264;6.154;2022-08-21T05:10:55;7.30;;;3.45;;
47021;SDS011;32779;52.264;6.154;2022-08-21T05:15:47;10.10;;;3.58;;
47021;SDS011;32779;52.264;6.154;2022-08-21T05:20:39;7.72;;;3.53;;
47021;SDS011;32779;52.264;6.154;2022-08-21T05:25:34;7.65;;;3.05;;
47021;SDS011;32779;52.264;6.154;2022-08-21T05:28:00;6.97;;;3.88;;
47021;SDS011;32779;52.264;6.154;2022-08-21T05:30:25;11.35;;;4.00;;
47021;SDS011;32779;52.264;6.154;2022-08-21T05:32:55;6.03;;;2.95;;
47021;SDS011;32779;52.264;6.154;2022-08-21T05:35:23;7.15;;;3.80;;
47021;SDS011;32779;52.264;6.154;2022-08-21T05:37:49;8.57;;;4.40;;
47021;SDS011;32779;52.264;6.154;2022-08-21T05:42:40;6.80;;;4.00;;
47021;SDS011;32779;52.264;6.154;2022-08-21T05:47:31;7.60;;;4.00;;
47021;SDS011;32779;52.264;6.154;2022-08-21T05:52:22;8.60;;;3.58;;
47021;SDS011;32779;52.264;6.154;2022-08-21T05:57:14;10.60;;;4.63;;
47021;SDS011;32779;52.264;6.154;2022-08-21T06:02:05;10.50;;;3.72;;
47021;SDS011;32779;52.264;6.154;2022-08-21T06:04:35;11.10;;;4.82;;
47021;SDS011;32779;52.264;6.154;2022-08-21T06:07:01;9.27;;;4.38;;
47021;SDS011;32779;52.264;6.154;2022-08-21T06:09:26;12.63;;;4.20;;
47021;SDS011;32779;52.264;6.154;2022-08-21T06:14:17;9.10;;;4.25;;
47021;SDS011;32779;52.264;6.154;2022-08-21T06:19:08;7.65;;;3.92;;
47021;SDS011;32779;52.264;6.154;2022-08-21T06:23:59;8.27;;;4.18;;
47021;SDS011;32779;52.264;6.154;2022-08-21T06:28:51;5.88;;;4.07;;
47021;SDS011;32779;52.264;6.154;2022-08-21T06:33:43;8.05;;;4.10;;
47021;SDS011;32779;52.264;6.154;2022-08-21T06:36:09;6.00;;;3.97;;
47021;SDS011;32779;52.264;6.154;2022-08-21T06:41:01;9.00;;;4.10;;
47021;SDS011;32779;52.264;6.154;2022-08-21T06:45:52;10.48;;;4.15;;
47021;SDS011;32779;52.264;6.154;2022-08-21T06:48:18;9.27;;;3.90;;
47021;SDS011;32779;52.264;6.154;2022-08-21T06:53:10;5.78;;;3.50;;
47021;SDS011;32779;52.264;6.154;2022-08-21T06:55:41;11.77;;;3.67;;
47021;SDS011;32779;52.264;6.154;2022-08-21T06:58:07;10.23;;;3.60;;
47021;SDS011;32779;52.264;6.154;2022-08-21T07:00:34;5.15;;;3.15;;
47021;SDS011;32779;52.264;6.154;2022-08-21T07:03:00;10.15;;;3.92;;
47021;SDS011;32779;52.264;6.154;2022-08-21T07:05:27;10.18;;;3.63;;
47021;SDS011;32779;52.264;6.154;2022-08-21T07:07:54;9.80;;;3.63;;
47021;SDS011;32779;52.264;6.154;2022-08-21T07:10:19;5.60;;;3.08;;
47021;SDS011;32779;52.264;6.154;2022-08-21T07:12:45;8.95;;;3.25;;
47021;SDS011;32779;52.264;6.154;2022-08-21T07:15:11;7.13;;;2.60;;
47021;SDS011;32779;52.264;6.154;2022-08-21T07:17:37;10.40;;;2.78;;
47021;SDS011;32779;52.264;6.154;2022-08-21T07:20:03;8.13;;;2.63;;
47021;SDS011;32779;52.264;6.154;2022-08-21T07:22:30;11.48;;;3.00;;
47021;SDS011;32779;52.264;6.154;2022-08-21T07:24:56;11.10;;;2.88;;
47021;SDS011;32779;52.264;6.154;2022-08-21T07:27:21;7.90;;;3.20;;
47021;SDS011;32779;52.264;6.154;2022-08-21T07:29:47;10.63;;;2.72;;
47021;SDS011;32779;52.264;6.154;2022-08-21T07:32:13;10.13;;;2.63;;
47021;SDS011;32779;52.264;6.154;2022-08-21T07:34:40;8.10;;;2.92;;
47021;SDS011;32779;52.264;6.154;2022-08-21T07:37:06;9.82;;;3.00;;
47021;SDS011;32779;52.264;6.154;2022-08-21T07:39:31;7.32;;;2.85;;
47021;SDS011;32779;52.264;6.154;2022-08-21T07:41:57;8.27;;;2.67;;
47021;SDS011;32779;52.264;6.154;2022-08-21T07:44:23;6.50;;;3.20;;
47021;SDS011;32779;52.264;6.154;2022-08-21T07:46:48;8.93;;;3.08;;
47021;SDS011;32779;52.264;6.154;2022-08-21T07:49:14;7.07;;;2.90;;
47021;SDS011;32779;52.264;6.154;2022-08-21T07:51:39;8.48;;;2.50;;
47021;SDS011;32779;52.264;6.154;2022-08-21T07:54:05;7.60;;;2.13;;
47021;SDS011;32779;52.264;6.154;2022-08-21T07:56:31;12.35;;;2.33;;
47021;SDS011;32779;52.264;6.154;2022-08-21T07:58:57;7.32;;;2.25;;
47021;SDS011;32779;52.264;6.154;2022-08-21T08:01:23;7.05;;;1.95;;
47021;SDS011;32779;52.264;6.154;2022-08-21T08:03:49;11.32;;;2.33;;
47021;SDS011;32779;52.264;6.154;2022-08-21T08:06:14;8.05;;;1.73;;
47021;SDS011;32779;52.264;6.154;2022-08-21T08:08:43;4.35;;;1.40;;
47021;SDS011;32779;52.264;6.154;2022-08-21T08:11:09;6.68;;;1.55;;
47021;SDS011;32779;52.264;6.154;2022-08-21T08:13:39;6.00;;;1.67;;
47021;SDS011;32779;52.264;6.154;2022-08-21T08:16:06;4.03;;;1.10;;
47021;SDS011;32779;52.264;6.154;2022-08-21T08:18:32;6.82;;;1.38;;
47021;SDS011;32779;52.264;6.154;2022-08-21T08:20:58;6.28;;;1.17;;
47021;SDS011;32779;52.264;6.154;2022-08-21T08:23:24;2.38;;;0.80;;
47021;SDS011;32779;52.264;6.154;2022-08-21T08:25:50;3.22;;;0.90;;
47021;SDS011;32779;52.264;6.154;2022-08-21T08:28:16;4.35;;;1.00;;
47021;SDS011;32779;52.264;6.154;2022-08-21T08:30:41;3.33;;;0.80;;
47021;SDS011;32779;52.264;6.154;2022-08-21T08:33:07;2.83;;;1.00;;
47021;SDS011;32779;52.264;6.154;2022-08-21T08:35:33;5.75;;;0.93;;
47021;SDS011;32779;52.264;6.154;2022-08-21T08:37:59;3.03;;;0.75;;
47021;SDS011;32779;52.264;6.154;2022-08-21T08:40:32;2.72;;;0.95;;
47021;SDS011;32779;52.264;6.154;2022-08-21T08:43:06;4.15;;;1.20;;
47021;SDS011;32779;52.264;6.154;2022-08-21T08:45:33;8.55;;;1.55;;
47021;SDS011;32779;52.264;6.154;2022-08-21T08:48:03;7.45;;;1.30;;
47021;SDS011;32779;52.264;6.154;2022-08-21T08:50:40;6.57;;;1.02;;
47021;SDS011;32779;52.264;6.154;2022-08-21T08:53:08;3.95;;;1.50;;
47021;SDS011;32779;52.264;6.154;2022-08-21T08:55:43;5.70;;;1.20;;
47021;SDS011;32779;52.264;6.154;2022-08-21T08:58:12;6.93;;;1.35;;
47021;SDS011;32779;52.264;6.154;2022-08-21T09:00:44;6.05;;;1.55;;
47021;SDS011;32779;52.264;6.154;2022-08-21T09:03:13;7.10;;;1.35;;
47021;SDS011;32779;52.264;6.154;2022-08-21T09:05:46;8.73;;;1.92;;
47021;SDS011;32779;52.264;6.154;2022-08-21T09:13:33;6.18;;;1.50;;
47021;SDS011;32779;52.264;6.154;2022-08-21T09:16:13;7.82;;;1.48;;
47021;SDS011;32779;52.264;6.154;2022-08-21T09:21:58;6.60;;;1.58;;
47021;SDS011;32779;52.264;6.154;2022-08-21T09:24:46;2.92;;;1.08;;
47021;SDS011;32779;52.264;6.154;2022-08-21T09:27:22;4.97;;;1.30;;
47021;SDS011;32779;52.264;6.154;2022-08-21T09:29:49;7.38;;;1.80;;
47021;SDS011;32779;52.264;6.154;2022-08-21T09:32:18;4.40;;;1.20;;
47021;SDS011;32779;52.264;6.154;2022-08-21T09:34:58;5.57;;;1.50;;
47021;SDS011;32779;52.264;6.154;2022-08-21T09:37:34;7.05;;;1.80;;
47021;SDS011;32779;52.264;6.154;2022-08-21T09:45:43;7.88;;;1.33;;
47021;SDS011;32779;52.264;6.154;2022-08-21T09:48:20;6.28;;;1.70;;
47021;SDS011;32779;52.264;6.154;2022-08-21T09:50:48;8.98;;;1.50;;
47021;SDS011;32779;52.264;6.154;2022-08-21T09:53:16;7.25;;;1.27;;
47021;SDS011;32779;52.264;6.154;2022-08-21T09:55:48;7.43;;;1.83;;
47021;SDS011;32779;52.264;6.154;2022-08-21T09:58:38;3.95;;;0.93;;
47021;SDS011;32779;52.264;6.154;2022-08-21T10:01:06;7.13;;;1.52;;
47021;SDS011;32779;52.264;6.154;2022-08-21T10:03:37;8.90;;;1.55;;
47021;SDS011;32779;52.264;6.154;2022-08-21T10:06:04;6.97;;;1.67;;
47021;SDS011;32779;52.264;6.154;2022-08-21T10:08:34;7.85;;;1.42;;
47021;SDS011;32779;52.264;6.154;2022-08-21T10:11:12;5.22;;;1.40;;
47021;SDS011;32779;52.264;6.154;2022-08-21T10:13:56;8.55;;;1.33;;
47021;SDS011;32779;52.264;6.154;2022-08-21T10:27:47;4.95;;;1.35;;
47021;SDS011;32779;52.264;6.154;2022-08-21T10:30:35;5.65;;;1.10;;
47021;SDS011;32779;52.264;6.154;2022-08-21T10:47:03;3.78;;;1.33;;
47021;SDS011;32779;52.264;6.154;2022-08-21T10:52:22;6.20;;;1.40;;
47021;SDS011;32779;52.264;6.154;2022-08-21T10:55:25;5.75;;;1.50;;
47021;SDS011;32779;52.264;6.154;2022-08-21T11:00:26;7.57;;;1.60;;
47021;SDS011;32779;52.264;6.154;2022-08-21T11:03:16;9.93;;;1.60;;
47021;SDS011;32779;52.264;6.154;2022-08-21T11:05:52;10.82;;;1.20;;
47021;SDS011;32779;52.264;6.154;2022-08-21T11:08:26;4.93;;;1.40;;
47021;SDS011;32779;52.264;6.154;2022-08-21T11:11:20;12.68;;;2.00;;
47021;SDS011;32779;52.264;6.154;2022-08-21T11:13:58;4.10;;;0.90;;
47021;SDS011;32779;52.264;6.154;2022-08-21T11:16:53;2.78;;;0.95;;
47021;SDS011;32779;52.264;6.154;2022-08-21T11:19:33;4.63;;;0.95;;
47021;SDS011;32779;52.264;6.154;2022-08-21T11:25:17;6.40;;;1.35;;
47021;SDS011;32779;52.264;6.154;2022-08-21T11:28:00;8.07;;;1.70;;
47021;SDS011;32779;52.264;6.154;2022-08-21T11:30:48;3.03;;;0.90;;
47021;SDS011;32779;52.264;6.154;2022-08-21T11:38:46;4.85;;;1.00;;
47021;SDS011;32779;52.264;6.154;2022-08-21T11:41:29;8.57;;;1.70;;
47021;SDS011;32779;52.264;6.154;2022-08-21T11:46:32;4.57;;;1.00;;
47021;SDS011;32779;52.264;6.154;2022-08-21T11:49:23;2.87;;;0.90;;
47021;SDS011;32779;52.264;6.154;2022-08-21T12:00:04;7.30;;;1.20;;
47021;SDS011;32779;52.264;6.154;2022-08-21T12:02:39;3.05;;;0.80;;
47021;SDS011;32779;52.264;6.154;2022-08-21T12:05:11;3.72;;;1.20;;
47021;SDS011;32779;52.264;6.154;2022-08-21T12:07:48;4.93;;;1.05;;
47021;SDS011;32779;52.264;6.154;2022-08-21T12:10:31;4.97;;;1.30;;
47021;SDS011;32779;52.264;6.154;2022-08-21T12:13:10;7.30;;;1.30;;
47021;SDS011;32779;52.264;6.154;2022-08-21T12:15:50;5.88;;;1.40;;
47021;SDS011;32779;52.264;6.154;2022-08-21T12:18:23;6.20;;;1.30;;
47021;SDS011;32779;52.264;6.154;2022-08-21T12:20:57;4.25;;;1.52;;
47021;SDS011;32779;52.264;6.154;2022-08-21T12:23:31;6.03;;;1.25;;
47021;SDS011;32779;52.264;6.154;2022-08-21T12:28:44;6.05;;;1.90;;
47021;SDS011;32779;52.264;6.154;2022-08-21T12:31:24;3.75;;;1.00;;
47021;SDS011;32779;52.264;6.154;2022-08-21T12:33:53;7.63;;;1.50;;
47021;SDS011;32779;52.264;6.154;2022-08-21T12:36:24;5.80;;;1.27;;
47021;SDS011;32779;52.264;6.154;2022-08-21T12:39:04;9.48;;;2.58;;
47021;SDS011;32779;52.264;6.154;2022-08-21T12:41:47;3.22;;;1.10;;
47021;SDS011;32779;52.264;6.154;2022-08-21T12:44:21;7.78;;;1.30;;
47021;SDS011;32779;52.264;6.154;2022-08-21T12:46:55;5.55;;;1.10;;
47021;SDS011;32779;52.264;6.154;2022-08-21T12:49:28;7.60;;;1.42;;
47021;SDS011;32779;52.264;6.154;2022-08-21T12:52:11;5.80;;;1.42;;
47021;SDS011;32779;52.264;6.154;2022-08-21T12:54:44;5.60;;;1.00;;
47021;SDS011;32779;52.264;6.154;2022-08-21T12:57:18;6.88;;;1.20;;
47021;SDS011;32779;52.264;6.154;2022-08-21T12:59:53;3.28;;;1.30;;
47021;SDS011;32779;52.264;6.154;2022-08-21T13:02:22;6.43;;;1.83;;
47021;SDS011;32779;52.264;6.154;2022-08-21T13:04:56;5.60;;;1.52;;
47021;SDS011;32779;52.264;6.154;2022-08-21T13:07:26;5.57;;;1.33;;
47021;SDS011;32779;52.264;6.154;2022-08-21T13:09:58;3.60;;;1.45;;
47021;SDS011;32779;52.264;6.154;2022-08-21T13:12:38;2.50;;;0.98;;
47021;SDS011;32779;52.264;6.154;2022-08-21T13:15:05;8.65;;;1.25;;
47021;SDS011;32779;52.264;6.154;2022-08-21T13:17:32;4.60;;;1.80;;
47021;SDS011;32779;52.264;6.154;2022-08-21T13:20:18;6.53;;;1.42;;
47021;SDS011;32779;52.264;6.154;2022-08-21T13:22:47;5.20;;;1.48;;
47021;SDS011;32779;52.264;6.154;2022-08-21T13:25:13;3.97;;;1.27;;
47021;SDS011;32779;52.264;6.154;2022-08-21T13:27:41;6.65;;;1.65;;
47021;SDS011;32779;52.264;6.154;2022-08-21T13:30:10;6.18;;;1.30;;
47021;SDS011;32779;52.264;6.154;2022-08-21T13:32:48;6.05;;;1.83;;
47021;SDS011;32779;52.264;6.154;2022-08-21T13:35:21;6.18;;;1.85;;
47021;SDS011;32779;52.264;6.154;2022-08-21T13:37:50;4.35;;;1.20;;
47021;SDS011;32779;52.264;6.154;2022-08-21T13:40:24;3.42;;;1.13;;
47021;SDS011;32779;52.264;6.154;2022-08-21T13:42:52;4.95;;;1.25;;
47021;SDS011;32779;52.264;6.154;2022-08-21T13:45:23;7.90;;;1.67;;
47021;SDS011;32779;52.264;6.154;2022-08-21T13:47:52;5.85;;;1.58;;
47021;SDS011;32779;52.264;6.154;2022-08-21T13:50:18;6.80;;;1.63;;
47021;SDS011;32779;52.264;6.154;2022-08-21T13:52:55;10.45;;;1.75;;
47021;SDS011;32779;52.264;6.154;2022-08-21T13:55:24;8.60;;;1.90;;
47021;SDS011;32779;52.264;6.154;2022-08-21T13:58:01;3.72;;;1.27;;
47021;SDS011;32779;52.264;6.154;2022-08-21T14:00:29;6.93;;;1.52;;
47021;SDS011;32779;52.264;6.154;2022-08-21T14:03:01;4.50;;;1.30;;
47021;SDS011;32779;52.264;6.154;2022-08-21T14:10:37;6.32;;;1.52;;
47021;SDS011;32779;52.264;6.154;2022-08-21T14:13:14;5.57;;;1.40;;
47021;SDS011;32779;52.264;6.154;2022-08-21T14:15:57;4.18;;;1.63;;
47021;SDS011;32779;52.264;6.154;2022-08-21T14:18:24;5.75;;;2.10;;
47021;SDS011;32779;52.264;6.154;2022-08-21T14:21:13;7.93;;;1.73;;
47021;SDS011;32779;52.264;6.154;2022-08-21T14:23:38;6.80;;;1.98;;
47021;SDS011;32779;52.264;6.154;2022-08-21T14:26:05;8.40;;;1.52;;
47021;SDS011;32779;52.264;6.154;2022-08-21T14:28:39;5.75;;;1.70;;
47021;SDS011;32779;52.264;6.154;2022-08-21T14:31:16;4.97;;;1.88;;
47021;SDS011;32779;52.264;6.154;2022-08-21T14:33:44;4.72;;;1.73;;
47021;SDS011;32779;52.264;6.154;2022-08-21T14:36:09;6.43;;;2.08;;
47021;SDS011;32779;52.264;6.154;2022-08-21T14:38:36;5.05;;;1.40;;
47021;SDS011;32779;52.264;6.154;2022-08-21T14:41:08;4.38;;;1.30;;
47021;SDS011;32779;52.264;6.154;2022-08-21T14:43:42;7.53;;;1.33;;
47021;SDS011;32779;52.264;6.154;2022-08-21T14:46:10;5.88;;;1.52;;
47021;SDS011;32779;52.264;6.154;2022-08-21T14:48:37;2.88;;;1.13;;
47021;SDS011;32779;52.264;6.154;2022-08-21T14:51:03;3.40;;;1.10;;
47021;SDS011;32779;52.264;6.154;2022-08-21T14:53:28;5.88;;;1.42;;
47021;SDS011;32779;52.264;6.154;2022-08-21T14:55:54;7.53;;;1.27;;
47021;SDS011;32779;52.264;6.154;2022-08-21T14:58:32;4.50;;;1.60;;
47021;SDS011;32779;52.264;6.154;2022-08-21T15:01:00;5.97;;;1.45;;
47021;SDS011;32779;52.264;6.154;2022-08-21T15:03:29;4.60;;;1.40;;
47021;SDS011;32779;52.264;6.154;2022-08-21T15:05:55;6.03;;;1.48;;
47021;SDS011;32779;52.264;6.154;2022-08-21T15:08:21;7.10;;;1.60;;
47021;SDS011;32779;52.264;6.154;2022-08-21T15:10:47;6.25;;;1.92;;
47021;SDS011;32779;52.264;6.154;2022-08-21T15:13:13;7.18;;;1.50;;
47021;SDS011;32779;52.264;6.154;2022-08-21T15:15:40;6.60;;;1.77;;
47021;SDS011;32779;52.264;6.154;2022-08-21T15:18:07;6.53;;;1.75;;
47021;SDS011;32779;52.264;6.154;2022-08-21T15:20:34;10.48;;;1.50;;
47021;SDS011;32779;52.264;6.154;2022-08-21T15:23:00;9.35;;;2.22;;
47021;SDS011;32779;52.264;6.154;2022-08-21T15:25:27;10.05;;;2.13;;
47021;SDS011;32779;52.264;6.154;2022-08-21T15:27:52;9.00;;;2.70;;
47021;SDS011;32779;52.264;6.154;2022-08-21T15:30:18;8.00;;;1.85;;
47021;SDS011;32779;52.264;6.154;2022-08-21T15:32:44;3.70;;;1.45;;
47021;SDS011;32779;52.264;6.154;2022-08-21T15:35:10;6.65;;;1.73;;
47021;SDS011;32779;52.264;6.154;2022-08-21T15:37:37;6.82;;;1.30;;
47021;SDS011;32779;52.264;6.154;2022-08-21T15:40:03;6.93;;;1.58;;
47021;SDS011;32779;52.264;6.154;2022-08-21T15:42:31;6.07;;;1.88;;
47021;SDS011;32779;52.264;6.154;2022-08-21T15:44:57;6.45;;;1.48;;
47021;SDS011;32779;52.264;6.154;2022-08-21T15:47:30;9.90;;;1.88;;
47021;SDS011;32779;52.264;6.154;2022-08-21T15:49:58;8.03;;;1.50;;
47021;SDS011;32779;52.264;6.154;2022-08-21T15:52:24;5.47;;;1.42;;
47021;SDS011;32779;52.264;6.154;2022-08-21T15:54:52;4.43;;;1.33;;
47021;SDS011;32779;52.264;6.154;2022-08-21T15:57:20;3.80;;;1.30;;
47021;SDS011;32779;52.264;6.154;2022-08-21T15:59:48;7.15;;;1.70;;
47021;SDS011;32779;52.264;6.154;2022-08-21T16:02:17;13.70;;;2.55;;
47021;SDS011;32779;52.264;6.154;2022-08-21T16:04:53;6.63;;;1.38;;
47021;SDS011;32779;52.264;6.154;2022-08-21T16:07:19;8.23;;;1.48;;
47021;SDS011;32779;52.264;6.154;2022-08-21T16:09:44;7.60;;;1.50;;
47021;SDS011;32779;52.264;6.154;2022-08-21T16:12:11;7.90;;;1.42;;
47021;SDS011;32779;52.264;6.154;2022-08-21T16:15:00;6.05;;;1.20;;
47021;SDS011;32779;52.264;6.154;2022-08-21T16:17:30;6.07;;;1.60;;
47021;SDS011;32779;52.264;6.154;2022-08-21T16:19:58;3.95;;;1.38;;
47021;SDS011;32779;52.264;6.154;2022-08-21T16:22:26;6.03;;;1.30;;
47021;SDS011;32779;52.264;6.154;2022-08-21T16:24:51;5.25;;;1.10;;
47021;SDS011;32779;52.264;6.154;2022-08-21T16:27:17;4.18;;;1.17;;
47021;SDS011;32779;52.264;6.154;2022-08-21T16:29:43;10.02;;;1.40;;
47021;SDS011;32779;52.264;6.154;2022-08-21T16:32:10;7.88;;;1.33;;
47021;SDS011;32779;52.264;6.154;2022-08-21T16:34:36;5.28;;;1.23;;
47021;SDS011;32779;52.264;6.154;2022-08-21T16:37:07;6.05;;;1.27;;
47021;SDS011;32779;52.264;6.154;2022-08-21T16:39:32;5.65;;;1.48;;
47021;SDS011;32779;52.264;6.154;2022-08-21T16:41:58;6.43;;;1.50;;
47021;SDS011;32779;52.264;6.154;2022-08-21T16:44:24;3.88;;;1.35;;
47021;SDS011;32779;52.264;6.154;2022-08-21T16:46:50;4.45;;;1.13;;
47021;SDS011;32779;52.264;6.154;2022-08-21T16:49:16;6.53;;;1.70;;
47021;SDS011;32779;52.264;6.154;2022-08-21T16:51:41;9.73;;;1.33;;
47021;SDS011;32779;52.264;6.154;2022-08-21T16:54:08;6.43;;;1.58;;
47021;SDS011;32779;52.264;6.154;2022-08-21T16:56:34;5.60;;;1.35;;
47021;SDS011;32779;52.264;6.154;2022-08-21T16:59:01;6.07;;;1.90;;
47021;SDS011;32779;52.264;6.154;2022-08-21T17:01:28;5.75;;;1.67;;
47021;SDS011;32779;52.264;6.154;2022-08-21T17:03:55;4.90;;;1.25;;
47021;SDS011;32779;52.264;6.154;2022-08-21T17:06:21;5.80;;;1.27;;
47021;SDS011;32779;52.264;6.154;2022-08-21T17:08:48;4.93;;;1.00;;
47021;SDS011;32779;52.264;6.154;2022-08-21T17:11:21;3.75;;;1.27;;
47021;SDS011;32779;52.264;6.154;2022-08-21T17:13:54;3.78;;;0.98;;
47021;SDS011;32779;52.264;6.154;2022-08-21T17:16:20;3.67;;;1.15;;
47021;SDS011;32779;52.264;6.154;2022-08-21T17:18:46;3.50;;;0.90;;
47021;SDS011;32779;52.264;6.154;2022-08-21T17:21:12;7.32;;;1.17;;
47021;SDS011;32779;52.264;6.154;2022-08-21T17:23:38;7.68;;;1.50;;
47021;SDS011;32779;52.264;6.154;2022-08-21T17:26:04;5.43;;;1.42;;
47021;SDS011;32779;52.264;6.154;2022-08-21T17:28:31;7.10;;;1.38;;
47021;SDS011;32779;52.264;6.154;2022-08-21T17:31:00;3.83;;;1.20;;
47021;SDS011;32779;52.264;6.154;2022-08-21T17:33:27;10.95;;;2.25;;